createdAt,value
2022-10-17T00:01:00.104Z,8.50
2022-10-17T00:03:27.663Z,8.43
2022-10-17T00:05:54.949Z,9.52
2022-10-17T00:08:22.409Z,7.95
2022-10-17T00:11:02.967Z,8.45
2022-10-17T00:15:58.449Z,7.68
2022-10-17T00:18:25.971Z,7.95
2022-10-17T00:20:56.053Z,7.68
2022-10-17T00:23:24.187Z,7.43
2022-10-17T00:26:06.349Z,6.97
2022-10-17T00:28:33.914Z,8.73
2022-10-17T00:31:04.677Z,7.53
2022-10-17T00:33:33.009Z,7.43
2022-10-17T00:36:08.639Z,8.05
2022-10-17T00:38:37.100Z,7.78
2022-10-17T00:41:05.345Z,6.82
2022-10-17T00:43:59.740Z,8.13
2022-10-17T00:46:39.008Z,7.47
2022-10-17T00:49:12.690Z,7.75
2022-10-17T00:51:57.574Z,8.57
2022-10-17T00:54:30.679Z,7.70
2022-10-17T00:56:58.063Z,7.97
2022-10-17T00:59:29.651Z,8.45
2022-10-17T01:02:10.873Z,8.07
2022-10-17T01:04:42.593Z,8.52
2022-10-17T01:07:10.321Z,7.78
2022-10-17T01:09:38.873Z,7.32
2022-10-17T01:12:30.933Z,7.35
2022-10-17T01:15:19.428Z,7.90
2022-10-17T01:18:02.383Z,7.65
2022-10-17T01:20:51.002Z,8.40
2022-10-17T01:24:04.189Z,7.35
2022-10-17T01:27:31.346Z,6.95
2022-10-17T01:30:14.056Z,7.50
2022-10-17T01:33:03.027Z,8.02
2022-10-17T01:35:56.421Z,7.05
2022-10-17T01:38:46.069Z,8.25
2022-10-17T01:41:36.083Z,8.00
2022-10-17T01:44:42.650Z,7.53
2022-10-17T01:47:19.792Z,7.30
2022-10-17T01:49:50.835Z,7.30
2022-10-17T01:52:38.729Z,8.52
2022-10-17T01:55:22.362Z,7.85
2022-10-17T01:57:59.381Z,7.88
2022-10-17T02:00:30.089Z,7.53
2022-10-17T02:03:02.100Z,7.88
2022-10-17T02:05:35.917Z,8.00
2022-10-17T02:08:04.632Z,7.40
2022-10-17T02:11:03.560Z,7.63
2022-10-17T02:17:04.959Z,7.82
2022-10-17T02:20:09.753Z,8.50
2022-10-17T02:23:15.542Z,7.82
2022-10-17T02:25:57.158Z,7.35
2022-10-17T02:28:46.119Z,6.55
2022-10-17T02:32:19.229Z,7.75
2022-10-17T02:34:52.894Z,7.45
2022-10-17T02:37:27.362Z,7.18
2022-10-17T02:39:58.872Z,7.05
2022-10-17T02:42:28.227Z,6.82
2022-10-17T02:45:01.955Z,7.68
2022-10-17T02:47:59.340Z,6.72
2022-10-17T02:51:08.297Z,7.30
2022-10-17T02:54:11.116Z,8.18
2022-10-17T02:56:55.212Z,7.22
2022-10-17T02:59:25.293Z,7.22
2022-10-17T03:01:52.864Z,7.47
2022-10-17T03:04:20.835Z,7.70
2022-10-17T03:06:49.770Z,8.35
2022-10-17T03:09:18.711Z,7.63
2022-10-17T03:11:45.848Z,7.97
2022-10-17T03:14:13.352Z,8.32
2022-10-17T03:16:41.278Z,7.07
2022-10-17T03:19:08.870Z,6.93
2022-10-17T03:21:38.125Z,7.38
2022-10-17T03:26:34.854Z,7.35
2022-10-17T03:29:03.065Z,6.85
2022-10-17T03:31:30.986Z,6.80
2022-10-17T03:33:59.050Z,7.65
2022-10-17T03:36:26.248Z,7.85
2022-10-17T03:38:55.157Z,7.30
2022-10-17T03:41:23.347Z,7.72
2022-10-17T03:43:54.322Z,7.20
2022-10-17T03:46:22.122Z,8.23
2022-10-17T03:48:49.668Z,7.22
2022-10-17T03:51:17.079Z,7.95
2022-10-17T03:53:50.004Z,7.68
2022-10-17T03:56:23.287Z,7.15
2022-10-17T03:59:01.324Z,7.25
2022-10-17T04:01:30.452Z,7.72
2022-10-17T04:03:58.107Z,7.13
2022-10-17T04:06:29.267Z,7.60
2022-10-17T04:08:56.913Z,7.22
2022-10-17T04:12:02.781Z,6.70
2022-10-17T04:14:30.891Z,7.68
2022-10-17T04:16:58.571Z,6.93
2022-10-17T04:19:26.573Z,6.60
2022-10-17T04:21:54.875Z,7.30
2022-10-17T04:24:22.812Z,7.68
2022-10-17T04:27:05.369Z,8.05
2022-10-17T04:29:36.430Z,7.88
2022-10-17T04:32:15.732Z,7.28
2022-10-17T04:34:50.217Z,7.82
2022-10-17T04:37:20.560Z,7.00
2022-10-17T04:39:50.145Z,7.75
2022-10-17T04:42:17.507Z,8.18
2022-10-17T04:44:44.758Z,6.82
2022-10-17T04:47:15.304Z,6.80
2022-10-17T04:49:43.161Z,9.10
2022-10-17T04:52:11.665Z,7.13
2022-10-17T04:54:46.636Z,7.90
2022-10-17T04:57:15.012Z,7.35
2022-10-17T04:59:48.821Z,7.18
2022-10-17T05:02:25.710Z,7.40
2022-10-17T05:04:53.113Z,7.70
2022-10-17T05:07:21.408Z,7.13
2022-10-17T05:09:59.179Z,7.47
2022-10-17T05:12:27.158Z,7.80
2022-10-17T05:14:54.956Z,6.93
2022-10-17T05:17:25.148Z,7.15
2022-10-17T05:19:52.465Z,7.35
2022-10-17T05:22:20.075Z,6.88
2022-10-17T05:24:47.805Z,7.25
2022-10-17T05:27:15.095Z,7.20
2022-10-17T05:29:42.358Z,7.55
2022-10-17T05:32:25.172Z,7.30
2022-10-17T05:34:52.404Z,6.55
2022-10-17T05:37:21.056Z,7.18
2022-10-17T05:39:51.788Z,7.75
2022-10-17T05:42:20.108Z,7.18
2022-10-17T05:44:48.032Z,6.88
2022-10-17T05:47:17.886Z,6.10
2022-10-17T05:49:51.237Z,6.13
2022-10-17T05:52:23.593Z,7.90
2022-10-17T05:55:02.513Z,6.40
2022-10-17T05:57:29.826Z,6.13
2022-10-17T06:00:01.015Z,6.57
2022-10-17T06:02:29.786Z,5.53
2022-10-17T06:04:57.325Z,5.22
2022-10-17T06:07:24.875Z,5.25
2022-10-17T06:09:53.209Z,4.88
2022-10-17T06:12:20.502Z,4.78
2022-10-17T06:14:47.787Z,4.63
2022-10-17T06:17:16.641Z,5.43
2022-10-17T06:19:45.281Z,5.38
2022-10-17T06:22:15.058Z,5.28
2022-10-17T06:24:42.908Z,5.57
2022-10-17T06:27:11.945Z,5.97
2022-10-17T06:29:41.095Z,6.20
2022-10-17T06:32:11.244Z,5.80
2022-10-17T06:34:42.489Z,5.80
2022-10-17T06:37:10.593Z,6.38
2022-10-17T06:39:40.509Z,5.60
2022-10-17T06:42:17.380Z,6.22
2022-10-17T06:44:48.033Z,5.35
2022-10-17T06:47:41.724Z,5.78
2022-10-17T06:50:32.300Z,5.82
2022-10-17T06:53:10.522Z,6.47
2022-10-17T06:56:01.300Z,6.38
2022-10-17T06:58:52.969Z,5.90
2022-10-17T07:01:32.759Z,5.95
2022-10-17T07:04:01.352Z,6.15
2022-10-17T07:06:30.269Z,5.60
2022-10-17T07:09:02.848Z,5.28
2022-10-17T07:11:30.307Z,5.15
2022-10-17T07:13:57.683Z,5.28
2022-10-17T07:16:24.940Z,5.90
2022-10-17T07:19:00.802Z,4.60
2022-10-17T07:21:36.569Z,6.25
2022-10-17T07:24:07.590Z,5.30
2022-10-17T07:26:35.191Z,5.40
2022-10-17T07:29:02.636Z,5.47
2022-10-17T07:31:37.716Z,5.80
2022-10-17T07:34:05.252Z,5.15
2022-10-17T07:36:32.568Z,5.68
2022-10-17T07:39:02.430Z,5.28
2022-10-17T07:41:31.072Z,5.38
2022-10-17T07:43:58.315Z,5.75
2022-10-17T07:46:31.875Z,5.30
2022-10-17T07:48:59.854Z,5.78
2022-10-17T07:51:28.085Z,5.15
2022-10-17T07:53:55.368Z,5.50
2022-10-17T07:56:24.812Z,5.10
2022-10-17T07:58:53.689Z,4.82
2022-10-17T08:01:20.992Z,5.20
2022-10-17T08:03:51.446Z,5.35
2022-10-17T08:06:19.131Z,5.45
2022-10-17T08:08:46.355Z,5.35
2022-10-17T08:11:15.090Z,6.13
2022-10-17T08:13:42.732Z,5.68
2022-10-17T08:16:13.376Z,5.60
2022-10-17T08:18:43.494Z,5.40
2022-10-17T08:21:13.445Z,6.45
2022-10-17T08:23:40.856Z,5.70
2022-10-17T08:26:13.242Z,5.47
2022-10-17T08:28:41.352Z,5.68
2022-10-17T08:31:21.021Z,5.78
2022-10-17T08:36:19.847Z,4.97
2022-10-17T08:38:51.797Z,5.93
2022-10-17T08:41:26.017Z,5.97
2022-10-17T08:44:22.450Z,5.15
2022-10-17T08:46:57.128Z,5.22
2022-10-17T08:50:11.111Z,5.45
2022-10-17T08:53:12.007Z,5.43
2022-10-17T08:55:47.565Z,5.43
2022-10-17T08:58:26.183Z,5.65
2022-10-17T09:01:24.150Z,5.82
2022-10-17T09:04:23.371Z,5.28
2022-10-17T09:07:23.679Z,4.93
2022-10-17T09:10:38.289Z,5.70
2022-10-17T09:13:28.561Z,5.75
2022-10-17T09:16:08.162Z,5.03
2022-10-17T09:18:43.109Z,5.13
2022-10-17T09:22:02.839Z,5.45
2022-10-17T09:24:49.892Z,5.72
2022-10-17T09:28:04.718Z,5.50
2022-10-17T09:30:54.198Z,6.25
2022-10-17T09:33:42.296Z,7.25
2022-10-17T09:36:24.394Z,6.60
2022-10-17T09:38:59.872Z,5.80
2022-10-17T09:41:45.283Z,6.18
2022-10-17T09:44:22.895Z,6.22
2022-10-17T09:47:52.810Z,5.75
2022-10-17T09:50:34.888Z,5.88
2022-10-17T09:53:20.924Z,5.80
2022-10-17T09:55:57.987Z,5.75
2022-10-17T09:58:44.893Z,5.85
2022-10-17T10:01:22.725Z,6.22
2022-10-17T10:04:13.888Z,5.60
2022-10-17T10:07:01.160Z,6.78
2022-10-17T10:09:33.342Z,5.22
2022-10-17T10:12:17.161Z,6.20
2022-10-17T10:14:47.223Z,5.78
2022-10-17T10:17:29.123Z,6.10
2022-10-17T10:19:56.732Z,6.15
2022-10-17T10:22:23.940Z,5.95
2022-10-17T10:25:26.676Z,6.05
2022-10-17T10:27:54.937Z,6.13
2022-10-17T10:30:30.318Z,6.47
2022-10-17T10:33:00.548Z,5.55
2022-10-17T10:35:36.601Z,6.07
2022-10-17T10:38:14.624Z,5.75
2022-10-17T10:41:03.316Z,6.10
2022-10-17T10:43:51.818Z,6.75
2022-10-17T10:46:27.426Z,5.75
2022-10-17T10:48:59.739Z,5.75
2022-10-17T10:51:36.376Z,6.45
2022-10-17T10:54:13.735Z,6.00
2022-10-17T10:57:04.556Z,6.82
2022-10-17T10:59:43.880Z,6.25
2022-10-17T11:02:38.497Z,5.80
2022-10-17T11:05:41.221Z,5.65
2022-10-17T11:08:42.739Z,6.20
2022-10-17T11:11:40.679Z,6.32
2022-10-17T11:14:30.825Z,6.32
2022-10-17T11:17:50.053Z,5.80
2022-10-17T11:21:02.652Z,5.65
2022-10-17T11:23:47.096Z,6.05
2022-10-17T11:26:27.040Z,6.05
2022-10-17T11:29:00.469Z,5.78
2022-10-17T11:31:34.966Z,5.70
2022-10-17T11:34:25.790Z,5.13
2022-10-17T11:36:59.994Z,5.70
2022-10-17T11:40:03.245Z,5.93
2022-10-17T11:43:02.524Z,5.30
2022-10-17T11:45:40.135Z,5.35
2022-10-17T11:48:25.307Z,5.45
2022-10-17T11:54:24.346Z,5.70
2022-10-17T11:57:45.132Z,5.13
2022-10-17T12:00:25.893Z,5.13
2022-10-17T12:03:48.889Z,5.15
2022-10-17T12:07:09.377Z,5.45
2022-10-17T12:10:41.092Z,5.85
2022-10-17T12:13:33.306Z,6.13
2022-10-17T12:16:22.198Z,5.72
2022-10-17T12:19:03.179Z,5.25
2022-10-17T12:22:22.592Z,5.70
2022-10-17T12:25:04.460Z,5.97
2022-10-17T12:27:46.100Z,8.15
2022-10-17T12:30:13.624Z,7.68
2022-10-17T12:33:07.161Z,6.65
2022-10-17T12:35:38.753Z,7.45
2022-10-17T12:38:18.187Z,7.95
2022-10-17T12:43:16.338Z,7.95
2022-10-17T12:45:54.816Z,5.43
2022-10-17T12:48:34.019Z,5.90
2022-10-17T12:51:37.415Z,4.45
2022-10-17T12:54:16.399Z,3.67
2022-10-17T12:56:49.552Z,4.03
2022-10-17T12:59:25.827Z,3.63
2022-10-17T13:02:03.625Z,3.33
2022-10-17T13:04:31.969Z,2.95
2022-10-17T13:07:01.354Z,3.08
2022-10-17T13:09:42.934Z,3.10
2022-10-17T13:12:18.487Z,3.55
2022-10-17T13:14:47.266Z,3.05
2022-10-17T13:17:30.824Z,3.10
2022-10-17T13:19:59.019Z,3.20
2022-10-17T13:22:32.844Z,2.92
2022-10-17T13:25:19.121Z,3.85
2022-10-17T13:27:48.442Z,3.42
2022-10-17T13:30:47.893Z,3.00
2022-10-17T13:33:38.061Z,3.05
2022-10-17T13:36:13.718Z,2.70
2022-10-17T13:38:42.786Z,3.10
2022-10-17T13:41:34.682Z,3.90
2022-10-17T13:44:10.308Z,3.97
2022-10-17T13:46:40.339Z,4.22
2022-10-17T13:49:34.127Z,3.72
2022-10-17T13:52:04.486Z,4.32
2022-10-17T13:54:34.769Z,3.80
2022-10-17T13:57:04.698Z,4.45
2022-10-17T13:59:40.357Z,4.05
2022-10-17T14:02:20.446Z,4.47
2022-10-17T14:08:13.347Z,4.82
2022-10-17T14:10:44.563Z,5.80
2022-10-17T14:13:36.052Z,4.90
2022-10-17T14:16:05.365Z,4.43
2022-10-17T14:18:36.931Z,4.47
2022-10-17T14:24:26.593Z,3.40
2022-10-17T14:29:31.333Z,3.95
2022-10-17T14:32:08.536Z,4.78
2022-10-17T14:34:40.686Z,5.07
2022-10-17T14:37:46.572Z,3.40
2022-10-17T14:40:33.993Z,2.97
2022-10-17T14:43:06.106Z,3.25
2022-10-17T14:45:38.150Z,3.70
2022-10-17T14:48:18.477Z,3.70
2022-10-17T14:54:27.112Z,3.67
2022-10-17T14:56:55.817Z,3.10
2022-10-17T14:59:52.082Z,2.97
2022-10-17T15:02:13.194Z,2.60
2022-10-17T15:04:40.684Z,3.60
2022-10-17T15:07:10.585Z,3.00
2022-10-17T15:09:37.803Z,2.97
2022-10-17T15:12:13.106Z,3.45
2022-10-17T15:14:40.396Z,2.67
2022-10-17T15:17:22.400Z,2.60
2022-10-17T15:19:50.840Z,2.55
2022-10-17T15:22:18.695Z,2.80
2022-10-17T15:24:46.640Z,3.60
2022-10-17T15:27:24.368Z,3.88
2022-10-17T15:29:53.057Z,3.08
2022-10-17T15:32:20.463Z,2.47
2022-10-17T15:34:47.872Z,2.55
2022-10-17T15:37:24.581Z,2.60
2022-10-17T15:39:55.198Z,2.72
2022-10-17T15:42:28.649Z,2.95
2022-10-17T15:44:57.430Z,3.28
2022-10-17T15:47:33.788Z,4.05
2022-10-17T15:50:02.404Z,2.92
2022-10-17T15:52:29.859Z,3.55
2022-10-17T15:54:59.538Z,4.15
2022-10-17T15:57:34.997Z,3.85
2022-10-17T16:00:02.409Z,5.85
2022-10-17T16:02:36.649Z,6.20
2022-10-17T16:05:23.571Z,9.15
2022-10-17T16:07:51.606Z,7.10
2022-10-17T16:10:20.364Z,7.55
2022-10-17T16:12:49.875Z,7.25
2022-10-17T16:15:28.128Z,5.95
2022-10-17T16:17:57.416Z,5.07
2022-10-17T16:20:25.670Z,4.85
2022-10-17T16:22:59.950Z,5.88
2022-10-17T16:25:30.342Z,6.70
2022-10-17T16:28:00.352Z,6.72
2022-10-17T16:30:30.666Z,9.15
2022-10-17T16:32:57.936Z,15.32
2022-10-17T16:35:33.410Z,13.98
2022-10-17T16:38:06.046Z,13.82
2022-10-17T16:40:34.229Z,13.43
2022-10-17T16:43:01.842Z,8.63
2022-10-17T16:45:29.289Z,7.47
2022-10-17T16:47:56.731Z,6.93
2022-10-17T16:50:24.587Z,7.15
2022-10-17T16:52:51.884Z,5.15
2022-10-17T16:55:22.378Z,5.00
2022-10-17T17:00:18.070Z,5.32
2022-10-17T17:02:48.274Z,5.60
2022-10-17T17:05:15.963Z,7.30
2022-10-17T17:07:43.325Z,6.45
2022-10-17T17:10:10.779Z,3.90
2022-10-17T17:12:38.527Z,3.90
2022-10-17T17:15:06.185Z,5.68
2022-10-17T17:17:48.712Z,5.88
2022-10-17T17:20:17.708Z,4.63
2022-10-17T17:22:45.076Z,5.55
2022-10-17T17:25:12.434Z,4.85
2022-10-17T17:27:39.950Z,4.30
2022-10-17T17:30:07.985Z,3.95
2022-10-17T17:32:35.401Z,4.78
2022-10-17T17:35:02.903Z,4.50
2022-10-17T17:37:30.644Z,3.75
2022-10-17T17:39:58.188Z,4.20
2022-10-17T17:42:25.556Z,3.72
2022-10-17T17:44:52.878Z,3.42
2022-10-17T17:47:20.212Z,3.20
2022-10-17T17:49:47.803Z,3.67
2022-10-17T17:52:15.125Z,3.10
2022-10-17T17:54:42.429Z,3.17
2022-10-17T17:57:10.064Z,3.72
2022-10-17T17:59:39.649Z,3.30
2022-10-17T18:02:09.046Z,3.58
2022-10-17T18:04:36.687Z,3.20
2022-10-17T18:07:04.024Z,3.13
2022-10-17T18:09:31.341Z,3.22
2022-10-17T18:11:58.742Z,3.35
2022-10-17T18:14:26.285Z,3.13
2022-10-17T18:16:53.806Z,4.22
2022-10-17T18:19:22.365Z,4.03
2022-10-17T18:21:49.778Z,3.08
2022-10-17T18:24:17.204Z,3.42
2022-10-17T18:26:44.603Z,3.70
2022-10-17T18:29:12.876Z,3.47
2022-10-17T18:31:40.465Z,3.63
2022-10-17T18:34:07.841Z,3.72
2022-10-17T18:36:35.711Z,3.20
2022-10-17T18:39:04.215Z,3.60
2022-10-17T18:41:33.186Z,3.40
2022-10-17T18:44:00.957Z,3.72
2022-10-17T18:46:35.631Z,3.10
2022-10-17T18:49:03.737Z,3.50
2022-10-17T18:51:31.098Z,3.80
2022-10-17T18:53:59.017Z,3.67
2022-10-17T18:56:27.063Z,4.03
2022-10-17T18:58:54.757Z,3.65
2022-10-17T19:01:27.434Z,3.88
2022-10-17T19:03:57.969Z,3.78
2022-10-17T19:06:32.117Z,3.35
2022-10-17T19:09:07.041Z,3.85
2022-10-17T19:11:36.490Z,3.20
2022-10-17T19:14:12.857Z,3.90
2022-10-17T19:16:46.205Z,3.70
2022-10-17T19:19:25.050Z,4.15
2022-10-17T19:21:53.366Z,3.58
2022-10-17T19:24:27.266Z,5.57
2022-10-17T19:26:58.412Z,7.68
2022-10-17T19:29:31.915Z,4.65
2022-10-17T19:32:00.668Z,4.13
2022-10-17T19:34:28.439Z,3.67
2022-10-17T19:36:56.170Z,3.65
2022-10-17T19:39:25.364Z,3.83
2022-10-17T19:41:53.012Z,3.80
2022-10-17T19:44:20.477Z,3.22
2022-10-17T19:46:49.507Z,4.63
2022-10-17T19:49:18.015Z,4.63
2022-10-17T19:51:45.297Z,3.70
2022-10-17T19:54:13.222Z,3.78
2022-10-17T19:56:43.563Z,2.80
2022-10-17T19:59:14.756Z,3.17
2022-10-17T20:01:42.862Z,3.28
2022-10-17T20:04:12.440Z,3.55
2022-10-17T20:06:40.984Z,3.25
2022-10-17T20:09:12.355Z,2.83
2022-10-17T20:11:43.468Z,3.20
2022-10-17T20:14:10.672Z,2.95
2022-10-17T20:16:38.120Z,3.08
2022-10-17T20:19:11.772Z,3.17
2022-10-17T20:21:40.053Z,2.88
2022-10-17T20:24:13.096Z,2.60
2022-10-17T20:26:40.759Z,3.40
2022-10-17T20:29:20.619Z,3.22
2022-10-17T20:31:48.926Z,3.03
2022-10-17T20:34:18.533Z,3.58
2022-10-17T20:36:47.127Z,3.20
2022-10-17T20:39:16.589Z,2.97
2022-10-17T20:41:45.018Z,2.50
2022-10-17T20:44:12.947Z,3.08
2022-10-17T20:46:45.221Z,3.40
2022-10-17T20:49:21.983Z,3.38
2022-10-17T20:51:49.348Z,3.35
2022-10-17T20:54:16.713Z,3.17
2022-10-17T20:56:44.111Z,2.30
2022-10-17T20:59:16.173Z,2.97
2022-10-17T21:01:45.179Z,2.50
2022-10-17T21:04:44.794Z,2.75
2022-10-17T21:07:00.990Z,2.92
2022-10-17T21:09:29.277Z,2.85
2022-10-17T21:11:57.159Z,3.25
2022-10-17T21:14:25.240Z,3.35
2022-10-17T21:16:52.686Z,3.00
2022-10-17T21:19:21.852Z,3.28
2022-10-17T21:21:49.545Z,2.78
2022-10-17T21:24:19.324Z,3.10
2022-10-17T21:26:50.311Z,3.35
2022-10-17T21:29:17.634Z,2.53
2022-10-17T21:31:45.372Z,3.00
2022-10-17T21:34:20.104Z,3.33
2022-10-17T21:36:48.404Z,2.72
2022-10-17T21:39:16.689Z,2.65
2022-10-17T21:41:45.191Z,2.63
2022-10-17T21:44:19.842Z,3.30
2022-10-17T21:46:47.963Z,2.92
2022-10-17T21:49:18.756Z,2.47
2022-10-17T21:51:47.676Z,2.75
2022-10-17T21:54:16.533Z,2.92
2022-10-17T21:56:44.352Z,2.78
2022-10-17T21:59:11.868Z,2.38
2022-10-17T22:01:42.238Z,2.53
2022-10-17T22:04:17.117Z,2.72
2022-10-17T22:06:47.042Z,2.78
2022-10-17T22:09:26.494Z,2.70
2022-10-17T22:11:56.888Z,2.30
2022-10-17T22:14:26.775Z,2.85
2022-10-17T22:16:55.005Z,2.25
2022-10-17T22:19:26.990Z,2.58
2022-10-17T22:21:54.851Z,2.85
2022-10-17T22:24:23.210Z,2.60
2022-10-17T22:26:51.156Z,2.38
2022-10-17T22:29:18.631Z,2.58
2022-10-17T22:31:46.142Z,2.15
2022-10-17T22:34:15.675Z,2.47
2022-10-17T22:36:43.205Z,2.58
2022-10-17T22:39:11.200Z,3.17
2022-10-17T22:41:38.482Z,2.38
2022-10-17T22:44:06.521Z,2.80
2022-10-17T22:46:34.454Z,3.58
2022-10-17T22:49:01.688Z,2.90
2022-10-17T22:51:28.953Z,2.60
2022-10-17T22:53:56.707Z,2.85
2022-10-17T22:56:24.086Z,2.88
2022-10-17T22:58:52.080Z,2.50
2022-10-17T23:01:23.698Z,2.30
2022-10-17T23:03:52.527Z,2.47
2022-10-17T23:06:20.885Z,2.55
2022-10-17T23:08:48.558Z,3.13
2022-10-17T23:11:16.787Z,3.03
2022-10-17T23:13:44.514Z,2.65
2022-10-17T23:16:11.846Z,2.63
2022-10-17T23:18:39.514Z,3.45
2022-10-17T23:21:08.023Z,2.38
2022-10-17T23:23:35.374Z,2.88
2022-10-17T23:26:08.975Z,2.92
2022-10-17T23:28:36.798Z,2.97
2022-10-17T23:31:20.349Z,3.03
2022-10-17T23:33:50.205Z,2.80
2022-10-17T23:36:19.985Z,2.55
2022-10-17T23:38:48.659Z,3.20
2022-10-17T23:41:17.182Z,2.72
2022-10-17T23:43:44.936Z,3.00
2022-10-17T23:46:12.656Z,3.17
2022-10-17T23:48:41.632Z,2.60
2022-10-17T23:51:11.023Z,4.80
2022-10-17T23:53:39.703Z,3.35
2022-10-17T23:56:08.466Z,2.90
2022-10-17T23:58:36.742Z,3.22
